Time;durP1;ratioP1;P1;durP2;ratioP2;P2;SDS_P1;SDS_P2;PMS_P1;PMS_P2;Temp;Humidity;BMP_temperature;BMP_pressure;BME280_temperature;BME280_humidity;BME280_pressure;Samples;Min_cycle;Max_cycle;Signal;HPM_P1;HPM_P2
2022/01/05 00:00:50;;;;;;;2.50;1.50;;;9.00;99.90;;;;;;5073563;28;20209;-61
2022/01/05 00:03:16;;;;;;;1.67;1.33;;;9.10;99.90;;;;;;5054549;28;20553;-62
2022/01/05 00:05:43;;;;;;;2.40;1.47;;;9.40;99.90;;;;;;5073376;28;20542;-61
2022/01/05 00:08:09;;;;;;;1.47;1.13;;;9.60;99.90;;;;;;5072971;28;20195;-67
2022/01/05 00:10:34;;;;;;;2.50;1.50;;;9.70;99.90;;;;;;5072651;28;20183;-63
2022/01/05 00:13:00;;;;;;;3.73;1.80;;;9.90;99.90;;;;;;5072980;28;20534;-61
2022/01/05 00:15:27;;;;;;;2.57;1.73;;;10.10;99.90;;;;;;5072602;28;20220;-62
2022/01/05 00:17:52;;;;;;;2.47;1.60;;;10.20;99.90;;;;;;5037635;28;20235;-62
2022/01/05 00:20:18;;;;;;;2.90;1.60;;;10.20;99.90;;;;;;5072340;28;20195;-61
2022/01/05 00:22:44;;;;;;;3.30;1.67;;;10.30;99.90;;;;;;5072665;28;20621;-63
2022/01/05 00:25:10;;;;;;;2.13;1.43;;;10.40;99.90;;;;;;5072574;28;20183;-63
2022/01/05 00:27:35;;;;;;;1.83;1.40;;;10.40;99.90;;;;;;5072717;28;20242;-63
2022/01/05 00:30:02;;;;;;;2.73;1.60;;;10.40;99.90;;;;;;5072745;28;20195;-62
2022/01/05 00:32:27;;;;;;;5.40;1.30;;;10.50;99.90;;;;;;5071840;28;20566;-60
2022/01/05 00:34:53;;;;;;;3.33;1.47;;;10.70;99.90;;;;;;5072565;28;20203;-61
2022/01/05 00:37:20;;;;;;;1.90;1.20;;;10.80;99.90;;;;;;5072440;28;20628;-63
2022/01/05 00:39:45;;;;;;;2.87;1.60;;;10.80;99.90;;;;;;5073180;28;20181;-62
2022/01/05 00:42:11;;;;;;;2.10;1.10;;;10.80;99.90;;;;;;5072185;28;20216;-62
2022/01/05 00:44:37;;;;;;;1.80;1.30;;;10.80;99.90;;;;;;5072724;28;20624;-62
2022/01/05 00:47:03;;;;;;;3.70;1.40;;;10.60;99.90;;;;;;5072456;28;20221;-63
2022/01/05 00:49:29;;;;;;;2.23;1.47;;;10.50;99.90;;;;;;5071686;28;20203;-61
2022/01/05 00:51:54;;;;;;;2.33;1.43;;;10.50;99.90;;;;;;5052348;28;20195;-62
2022/01/05 00:54:20;;;;;;;2.83;1.33;;;10.40;99.90;;;;;;5034219;28;20271;-63
2022/01/05 00:56:46;;;;;;;2.00;1.37;;;10.40;99.90;;;;;;5052093;28;20185;-63
2022/01/05 00:59:12;;;;;;;3.50;1.73;;;10.20;99.90;;;;;;5052228;28;20218;-62
2022/01/05 01:01:37;;;;;;;3.10;2.00;;;10.20;99.90;;;;;;5051803;28;20675;-62
2022/01/05 01:04:05;;;;;;;4.53;1.80;;;10.10;99.90;;;;;;5051441;28;20692;-62
2022/01/05 01:06:31;;;;;;;3.67;2.03;;;10.00;99.90;;;;;;5051020;28;20410;-62
2022/01/05 01:08:57;;;;;;;2.30;1.40;;;9.80;99.90;;;;;;5051808;28;20177;-62
2022/01/05 01:11:24;;;;;;;2.57;1.60;;;9.80;99.90;;;;;;5051932;28;20188;-62
2022/01/05 01:13:50;;;;;;;4.10;1.80;;;9.90;99.90;;;;;;5051954;28;20195;-62
2022/01/05 01:16:17;;;;;;;2.10;1.40;;;9.90;99.90;;;;;;5050432;28;20273;-63
2022/01/05 01:18:43;;;;;;;5.33;1.70;;;9.90;99.90;;;;;;5051882;28;20224;-62
2022/01/05 01:21:09;;;;;;;2.70;1.60;;;9.90;99.90;;;;;;5051384;28;20322;-67
2022/01/05 01:23:36;;;;;;;3.27;1.70;;;9.90;99.90;;;;;;5051812;28;20195;-62
2022/01/05 01:26:02;;;;;;;2.83;1.40;;;10.00;99.90;;;;;;5034312;28;20190;-63
2022/01/05 01:28:28;;;;;;;2.27;1.60;;;10.00;99.90;;;;;;5052487;28;20299;-61
2022/01/05 01:30:53;;;;;;;2.63;1.63;;;9.80;99.90;;;;;;5071695;28;20189;-62
2022/01/05 01:33:20;;;;;;;2.27;1.50;;;9.80;99.90;;;;;;5071096;28;20184;-62
2022/01/05 01:35:46;;;;;;;4.63;1.40;;;10.00;99.90;;;;;;5071792;28;20186;-62
2022/01/05 01:38:12;;;;;;;2.50;1.60;;;9.90;99.90;;;;;;5053157;28;20192;-62
2022/01/05 01:40:38;;;;;;;2.63;1.63;;;9.90;99.90;;;;;;5071914;28;20525;-64
2022/01/05 01:43:04;;;;;;;4.00;1.60;;;9.90;99.90;;;;;;5054167;28;20186;-62
2022/01/05 01:45:30;;;;;;;2.27;1.43;;;10.00;99.90;;;;;;5071424;28;20190;-62
2022/01/05 01:47:56;;;;;;;2.57;1.40;;;10.00;99.90;;;;;;5071462;28;20187;-62
2022/01/05 01:50:22;;;;;;;1.73;1.23;;;10.10;99.90;;;;;;5071425;28;20270;-63
2022/01/05 01:52:47;;;;;;;1.97;1.40;;;10.10;99.90;;;;;;5071855;28;20598;-61
2022/01/05 01:55:13;;;;;;;2.43;1.20;;;10.10;99.90;;;;;;5071677;28;20659;-62
2022/01/05 01:57:41;;;;;;;5.13;1.60;;;10.30;99.90;;;;;;5071709;28;20639;-61
2022/01/05 02:00:08;;;;;;;2.60;1.30;;;10.50;99.90;;;;;;5072018;28;20171;-63
2022/01/05 02:02:35;;;;;;;4.00;1.50;;;10.70;99.90;;;;;;5071116;28;20675;-62
2022/01/05 02:05:03;;;;;;;3.87;1.60;;;10.80;99.90;;;;;;5072234;28;20180;-62
2022/01/05 02:07:28;;;;;;;3.27;1.80;;;10.90;99.90;;;;;;5071072;28;20184;-62
2022/01/05 02:09:55;;;;;;;2.80;1.73;;;10.80;99.90;;;;;;5071588;28;20194;-61
2022/01/05 02:12:26;;;;;;;3.50;1.87;;;10.60;99.90;;;;;;5073309;28;20193;-62
2022/01/05 02:14:53;;;;;;;2.57;1.50;;;10.60;99.90;;;;;;5075818;28;20212;-62
2022/01/05 02:17:22;;;;;;;2.23;1.57;;;10.40;99.90;;;;;;5056720;28;20239;-61
2022/01/05 02:19:48;;;;;;;2.60;1.70;;;10.30;99.90;;;;;;5075411;28;20196;-62
2022/01/05 02:22:14;;;;;;;4.00;2.20;;;10.10;99.90;;;;;;5074661;28;20211;-62
2022/01/05 02:24:45;;;;;;;5.07;2.00;;;10.00;99.90;;;;;;5075622;28;20222;-61
2022/01/05 02:27:11;;;;;;;3.43;2.10;;;9.90;99.90;;;;;;5075217;28;20188;-62
2022/01/05 02:29:37;;;;;;;6.57;3.23;;;9.70;99.90;;;;;;5075304;28;20184;-61
2022/01/05 02:32:03;;;;;;;6.33;2.60;;;9.70;99.90;;;;;;5074838;28;20183;-61
2022/01/05 02:34:29;;;;;;;3.30;2.30;;;9.60;99.90;;;;;;5074799;28;20973;-62
2022/01/05 02:36:54;;;;;;;3.20;1.80;;;9.50;99.90;;;;;;5057360;28;20210;-62
2022/01/05 02:39:20;;;;;;;5.53;2.37;;;9.40;99.90;;;;;;5074904;28;20184;-61
2022/01/05 02:41:46;;;;;;;4.60;2.10;;;9.30;99.90;;;;;;5075040;28;20712;-61
2022/01/05 02:44:11;;;;;;;4.80;2.60;;;9.20;99.90;;;;;;5056960;28;20226;-62
2022/01/05 02:46:37;;;;;;;12.57;2.50;;;9.10;99.90;;;;;;5075301;28;20622;-61
2022/01/05 02:49:04;;;;;;;7.33;3.20;;;9.10;99.90;;;;;;5074822;28;20188;-61
2022/01/05 02:51:30;;;;;;;6.83;3.17;;;9.00;99.90;;;;;;5074710;28;20182;-62
2022/01/05 02:53:57;;;;;;;4.93;2.63;;;8.90;99.90;;;;;;5074686;28;20269;-61
2022/01/05 02:56:23;;;;;;;6.20;2.67;;;8.90;99.90;;;;;;5074894;28;20619;-62
2022/01/05 02:58:48;;;;;;;17.07;3.50;;;8.90;99.90;;;;;;5074566;28;20265;-62
2022/01/05 03:01:14;;;;;;;8.60;3.47;;;9.00;99.90;;;;;;5074231;28;20297;-62
2022/01/05 03:03:40;;;;;;;3.33;2.60;;;9.00;99.90;;;;;;5074794;28;20228;-62
2022/01/05 03:06:05;;;;;;;6.70;2.80;;;9.10;99.90;;;;;;5074910;28;20290;-63
2022/01/05 03:08:32;;;;;;;3.77;2.17;;;9.10;99.90;;;;;;5073837;28;20608;-62
2022/01/05 03:10:58;;;;;;;3.87;2.17;;;9.20;99.90;;;;;;5074727;28;20197;-62
2022/01/05 03:13:23;;;;;;;3.00;2.00;;;9.30;99.90;;;;;;5073875;28;20619;-63
2022/01/05 03:15:51;;;;;;;2.60;2.00;;;9.60;99.90;;;;;;5074235;28;20191;-62
2022/01/05 03:18:17;;;;;;;4.10;2.33;;;9.90;99.90;;;;;;5073573;28;20302;-62
2022/01/05 03:20:42;;;;;;;2.87;2.00;;;9.90;99.90;;;;;;5074498;28;20267;-62
2022/01/05 03:23:08;;;;;;;3.27;2.30;;;10.00;99.90;;;;;;5072904;28;20185;-62
2022/01/05 03:25:34;;;;;;;3.73;1.90;;;10.20;99.90;;;;;;5074212;28;20176;-62
2022/01/05 03:28:00;;;;;;;5.77;2.40;;;10.40;99.90;;;;;;5074455;28;20192;-62
2022/01/05 03:30:29;;;;;;;6.40;2.00;;;10.60;99.90;;;;;;5055463;28;20189;-63
2022/01/05 03:35:26;;;;;;;5.50;2.23;;;10.80;99.90;;;;;;5074009;28;20180;-63
2022/01/05 03:37:52;;;;;;;4.20;2.03;;;10.70;99.90;;;;;;5074373;28;20173;-62
2022/01/05 03:40:18;;;;;;;6.33;2.27;;;10.90;99.90;;;;;;5038952;28;20216;-62
2022/01/05 03:42:44;;;;;;;3.47;1.70;;;10.90;99.90;;;;;;5074067;28;20251;-62
2022/01/05 03:45:10;;;;;;;5.30;1.80;;;10.90;99.90;;;;;;5073162;28;20182;-67
2022/01/05 03:47:36;;;;;;;3.20;1.53;;;11.20;99.90;;;;;;5056039;28;20177;-62
2022/01/05 03:50:02;;;;;;;4.00;2.33;;;11.30;99.90;;;;;;5073730;28;20190;-62
2022/01/05 03:52:28;;;;;;;4.90;2.00;;;11.30;99.90;;;;;;5055722;28;20272;-62
2022/01/05 03:54:54;;;;;;;3.70;2.03;;;11.40;99.90;;;;;;5073563;28;20363;-64
2022/01/05 03:57:20;;;;;;;11.00;3.20;;;11.50;99.90;;;;;;5073627;28;20644;-62
2022/01/05 03:59:46;;;;;;;3.23;1.97;;;11.50;99.90;;;;;;5073939;28;20243;-62
2022/01/05 04:02:12;;;;;;;2.80;1.83;;;11.70;99.90;;;;;;5072770;28;20235;-63
2022/01/05 04:04:37;;;;;;;3.03;1.90;;;11.70;99.90;;;;;;5073354;28;20193;-62
2022/01/05 04:07:03;;;;;;;3.27;2.23;;;11.90;99.90;;;;;;5073209;28;20610;-62
2022/01/05 04:09:30;;;;;;;4.77;2.30;;;11.80;99.90;;;;;;5072411;28;20189;-62
2022/01/05 04:11:56;;;;;;;5.90;2.00;;;11.90;99.90;;;;;;5072910;28;20221;-63
2022/01/05 04:14:21;;;;;;;3.53;2.20;;;11.80;99.90;;;;;;5072780;28;20208;-62
2022/01/05 04:16:47;;;;;;;3.27;2.10;;;11.80;99.90;;;;;;5073178;28;20324;-62
2022/01/05 04:19:13;;;;;;;7.03;2.10;;;11.90;99.90;;;;;;5072376;28;20700;-62
2022/01/05 04:21:39;;;;;;;11.00;2.83;;;11.90;99.90;;;;;;5072883;28;20201;-62
2022/01/05 04:24:05;;;;;;;7.50;2.37;;;12.10;99.90;;;;;;5073014;28;20213;-61
2022/01/05 04:26:30;;;;;;;4.70;2.10;;;12.10;99.90;;;;;;5072712;28;20638;-62
2022/01/05 04:28:56;;;;;;;6.40;2.67;;;12.00;99.90;;;;;;5055197;28;20638;-63
2022/01/05 04:31:22;;;;;;;7.37;2.30;;;11.90;99.90;;;;;;5072267;28;20185;-62
2022/01/05 04:33:48;;;;;;;3.80;2.03;;;11.90;99.90;;;;;;5072671;28;20614;-62
2022/01/05 04:36:13;;;;;;;3.90;2.30;;;11.90;99.90;;;;;;5071767;28;20539;-62
2022/01/05 04:38:39;;;;;;;6.57;2.43;;;11.90;99.90;;;;;;5072579;28;20178;-63
2022/01/05 04:41:05;;;;;;;3.77;2.20;;;12.00;99.90;;;;;;5054436;28;20210;-62
2022/01/05 04:43:30;;;;;;;4.00;2.50;;;12.00;99.90;;;;;;5072528;28;20190;-62
2022/01/05 04:45:56;;;;;;;6.20;2.73;;;12.00;99.90;;;;;;5072668;28;20186;-62
2022/01/05 04:48:22;;;;;;;3.67;2.60;;;11.90;99.90;;;;;;5071747;28;20526;-62
2022/01/05 04:50:48;;;;;;;8.47;2.50;;;11.80;99.90;;;;;;5054201;28;20276;-62
2022/01/05 04:53:14;;;;;;;2.97;2.10;;;11.80;99.90;;;;;;5072406;28;20278;-62
2022/01/05 04:55:41;;;;;;;3.23;2.07;;;12.00;99.90;;;;;;5072097;28;20608;-61
2022/01/05 04:58:07;;;;;;;3.03;1.97;;;12.10;99.90;;;;;;5071729;28;20209;-60
2022/01/05 05:00:32;;;;;;;4.73;2.20;;;12.00;99.90;;;;;;5071695;28;20266;-63
2022/01/05 05:02:58;;;;;;;4.40;2.67;;;12.00;99.90;;;;;;5071872;28;20224;-62
2022/01/05 05:05:24;;;;;;;4.30;1.97;;;11.90;99.90;;;;;;5071440;28;20174;-62
2022/01/05 05:07:50;;;;;;;3.77;2.10;;;11.90;99.90;;;;;;5071611;28;20588;-63
2022/01/05 05:10:16;;;;;;;3.53;2.20;;;11.90;99.90;;;;;;5071028;28;20231;-62
2022/01/05 05:12:41;;;;;;;4.93;2.30;;;11.80;99.90;;;;;;5071841;28;20279;-62
2022/01/05 05:15:07;;;;;;;5.40;2.60;;;11.80;99.90;;;;;;5070999;28;20588;-62
2022/01/05 05:17:33;;;;;;;3.63;2.37;;;11.80;99.90;;;;;;5071159;28;20241;-62
2022/01/05 05:19:59;;;;;;;6.43;2.60;;;11.70;99.90;;;;;;5071161;28;20193;-63
2022/01/05 05:22:25;;;;;;;3.77;2.40;;;11.70;99.90;;;;;;5071274;28;20205;-63
2022/01/05 05:24:50;;;;;;;10.20;2.50;;;11.70;99.90;;;;;;5071249;28;20276;-61
2022/01/05 05:27:16;;;;;;;5.70;2.27;;;11.70;99.90;;;;;;5052690;28;20542;-63
2022/01/05 05:29:42;;;;;;;4.90;2.40;;;11.60;99.90;;;;;;5070691;28;20196;-63
2022/01/05 05:32:09;;;;;;;3.73;2.27;;;11.60;99.90;;;;;;5070555;28;20197;-62
2022/01/05 05:34:34;;;;;;;3.95;2.17;;;11.70;99.90;;;;;;5069772;28;20858;-64
2022/01/05 05:37:00;;;;;;;4.70;2.67;;;11.70;99.90;;;;;;5071113;28;20211;-62
2022/01/05 05:39:26;;;;;;;3.60;1.80;;;11.70;99.90;;;;;;5070273;28;20205;-63
2022/01/05 05:41:52;;;;;;;7.20;2.43;;;11.70;99.90;;;;;;5070598;28;20209;-63
2022/01/05 05:44:18;;;;;;;9.37;2.70;;;11.70;99.90;;;;;;5071189;28;20242;-63
2022/01/05 05:46:43;;;;;;;13.27;3.10;;;11.60;99.90;;;;;;5052019;28;20177;-63
2022/01/05 05:49:09;;;;;;;10.13;2.97;;;11.50;99.90;;;;;;5070618;28;20688;-68
2022/01/05 05:51:35;;;;;;;3.40;2.10;;;11.50;99.90;;;;;;5052602;28;20636;-64
2022/01/05 05:54:01;;;;;;;5.43;2.43;;;11.50;99.90;;;;;;5064783;28;20213;-64
2022/01/05 05:56:27;;;;;;;7.70;3.50;;;11.40;99.90;;;;;;5035441;28;20818;-64
2022/01/05 05:58:53;;;;;;;6.63;3.67;;;11.30;99.90;;;;;;5031450;28;20189;-66
2022/01/05 06:01:19;;;;;;;7.33;3.53;;;11.20;99.90;;;;;;5048128;28;20205;-64
2022/01/05 06:03:45;;;;;;;7.47;2.80;;;11.20;99.90;;;;;;5049002;28;20202;-65
2022/01/05 06:06:10;;;;;;;5.80;2.80;;;11.10;99.90;;;;;;5049062;28;20174;-68
2022/01/05 06:08:36;;;;;;;8.10;3.13;;;11.00;99.90;;;;;;5031050;28;20188;-65
2022/01/05 06:11:02;;;;;;;15.30;4.57;;;10.80;99.90;;;;;;5030239;28;20672;-65
2022/01/05 06:13:28;;;;;;;10.40;3.13;;;10.70;99.90;;;;;;5047045;28;20692;-65
2022/01/05 06:15:54;;;;;;;15.17;5.03;;;10.60;99.90;;;;;;5029607;28;20182;-64
2022/01/05 06:18:19;;;;;;;20.13;6.17;;;10.60;99.90;;;;;;5029388;28;20237;-65
2022/01/05 06:20:45;;;;;;;23.03;9.10;;;10.50;99.90;;;;;;5047657;28;20688;-63
2022/01/05 06:23:11;;;;;;;19.43;5.80;;;10.50;99.90;;;;;;5049183;28;20193;-65
2022/01/05 06:25:36;;;;;;;13.47;4.00;;;10.40;99.90;;;;;;5049697;28;20611;-64
2022/01/05 06:28:03;;;;;;;12.97;3.40;;;10.30;99.90;;;;;;5050811;28;20184;-63
2022/01/05 06:30:29;;;;;;;12.10;3.80;;;10.30;99.90;;;;;;5068010;28;20512;-63
2022/01/05 06:32:54;;;;;;;11.03;3.67;;;10.30;99.90;;;;;;5070898;28;20506;-64
2022/01/05 06:35:23;;;;;;;14.20;3.60;;;10.30;99.90;;;;;;5070692;28;20592;-65
2022/01/05 06:37:52;;;;;;;7.87;3.47;;;10.30;99.90;;;;;;5070534;28;20204;-65
2022/01/05 06:40:19;;;;;;;4.50;2.70;;;10.10;99.90;;;;;;5070546;28;20181;-64
2022/01/05 06:42:45;;;;;;;11.50;3.20;;;10.00;99.90;;;;;;5070110;28;20739;-64
2022/01/05 06:45:10;;;;;;;7.27;2.77;;;9.90;99.90;;;;;;5069975;28;20271;-68
2022/01/05 06:47:36;;;;;;;9.93;3.23;;;9.80;99.90;;;;;;5069975;28;20187;-66
2022/01/05 06:50:02;;;;;;;6.93;3.00;;;9.80;99.90;;;;;;5052524;28;20633;-64
2022/01/05 06:52:28;;;;;;;12.00;2.63;;;9.80;99.90;;;;;;5069866;28;20199;-64
2022/01/05 06:54:54;;;;;;;4.13;2.43;;;9.80;99.90;;;;;;5070312;28;20283;-64
2022/01/05 06:57:20;;;;;;;12.47;2.93;;;9.90;99.90;;;;;;5070258;28;20226;-65
2022/01/05 06:59:45;;;;;;;12.43;2.47;;;9.90;99.90;;;;;;5073455;28;20192;-64
2022/01/05 07:02:11;;;;;;;6.47;2.47;;;10.00;99.90;;;;;;5055786;28;20215;-70
2022/01/05 07:04:37;;;;;;;5.60;1.90;;;10.10;99.90;;;;;;5073812;28;20203;-63
2022/01/05 07:07:03;;;;;;;3.03;1.73;;;10.30;99.90;;;;;;5073535;28;20238;-64
2022/01/05 07:09:29;;;;;;;7.47;2.07;;;10.60;99.90;;;;;;5072602;28;20182;-64
2022/01/05 07:11:55;;;;;;;12.93;3.57;;;10.80;99.90;;;;;;5073418;28;20180;-64
2022/01/05 07:14:20;;;;;;;3.30;2.10;;;11.00;99.90;;;;;;5071241;28;20313;-65
2022/01/05 07:16:46;;;;;;;2.73;1.93;;;11.00;99.90;;;;;;5072458;28;20237;-62
2022/01/05 07:19:12;;;;;;;4.27;1.83;;;11.10;99.90;;;;;;5073153;28;20721;-64
2022/01/05 07:21:38;;;;;;;11.33;1.83;;;11.10;99.90;;;;;;5073721;28;20208;-64
2022/01/05 07:24:04;;;;;;;18.70;2.70;;;11.20;99.90;;;;;;5069422;28;20523;-64
2022/01/05 07:26:31;;;;;;;3.53;2.30;;;11.20;99.90;;;;;;5063519;28;20622;-59
2022/01/05 07:28:57;;;;;;;9.60;2.47;;;11.30;99.90;;;;;;5052917;28;20589;-74
2022/01/05 07:31:23;;;;;;;16.90;3.07;;;11.40;99.90;;;;;;5067081;28;20204;-77
2022/01/05 07:33:49;;;;;;;10.53;2.73;;;11.30;99.90;;;;;;5072818;28;20192;-66
2022/01/05 07:36:15;;;;;;;11.47;3.40;;;11.20;99.90;;;;;;5071086;28;20194;-64
2022/01/05 07:38:42;;;;;;;7.47;3.00;;;11.20;99.90;;;;;;5072030;28;20278;-66
2022/01/05 07:41:08;;;;;;;9.07;3.33;;;11.20;99.90;;;;;;5070051;28;20216;-64
2022/01/05 07:43:34;;;;;;;21.13;3.30;;;11.10;99.90;;;;;;5072600;28;20277;-69
2022/01/05 07:45:59;;;;;;;14.50;2.47;;;11.20;99.90;;;;;;5052383;28;20193;-68
2022/01/05 07:48:25;;;;;;;4.63;2.40;;;11.20;99.90;;;;;;5059880;28;20219;-61
2022/01/05 07:50:51;;;;;;;15.53;3.03;;;11.20;99.90;;;;;;5071816;28;20541;-66
2022/01/05 07:53:17;;;;;;;8.77;3.53;;;11.20;99.90;;;;;;5041248;28;20198;-65
2022/01/05 07:55:42;;;;;;;21.93;3.60;;;11.20;99.90;;;;;;5070014;28;20196;-65
2022/01/05 07:58:08;;;;;;;6.73;2.77;;;11.10;99.90;;;;;;5058281;28;20563;-65
2022/01/05 08:00:34;;;;;;;9.60;3.00;;;11.00;99.90;;;;;;5053338;28;20549;-62
2022/01/05 08:03:01;;;;;;;7.27;1.87;;;11.00;99.90;;;;;;5053612;28;20229;-65
2022/01/05 08:05:27;;;;;;;5.33;1.83;;;11.20;99.90;;;;;;5070676;28;20530;-62
2022/01/05 08:07:52;;;;;;;3.63;1.73;;;11.30;99.90;;;;;;5058052;28;20189;-63
2022/01/05 08:10:18;;;;;;;4.10;1.97;;;11.50;99.90;;;;;;5053134;28;20634;-61
2022/01/05 08:12:44;;;;;;;4.33;1.77;;;11.50;99.90;;;;;;5056519;28;20195;-59
2022/01/05 08:15:10;;;;;;;5.93;2.10;;;11.50;99.90;;;;;;5064118;28;20194;-68
2022/01/05 08:17:36;;;;;;;13.23;2.70;;;11.60;99.90;;;;;;5056985;28;20701;-61
2022/01/05 08:20:03;;;;;;;6.73;2.37;;;11.60;99.90;;;;;;5067613;28;20190;-72
2022/01/05 08:22:29;;;;;;;6.27;1.90;;;11.50;99.90;;;;;;5062910;28;20208;-62
2022/01/05 08:24:55;;;;;;;7.17;1.97;;;11.50;99.90;;;;;;5062927;28;20197;-63
2022/01/05 08:27:22;;;;;;;3.80;2.00;;;11.50;99.90;;;;;;5051788;28;20209;-63
2022/01/05 08:29:48;;;;;;;12.37;2.67;;;11.50;99.90;;;;;;5063349;28;20207;-61
2022/01/05 08:32:14;;;;;;;3.97;2.10;;;11.50;99.90;;;;;;5068810;28;20186;-69
2022/01/05 08:34:40;;;;;;;13.33;2.37;;;11.50;99.90;;;;;;5079957;23;20255;-64
2022/01/05 08:37:06;;;;;;;7.07;2.00;;;11.50;99.90;;;;;;5091216;28;20196;-63
2022/01/05 08:39:32;;;;;;;9.67;2.17;;;11.50;99.90;;;;;;5091311;28;20245;-62
2022/01/05 08:41:58;;;;;;;13.00;3.57;;;11.40;99.90;;;;;;5086359;28;20275;-66
2022/01/05 08:44:23;;;;;;;15.00;2.90;;;11.50;99.90;;;;;;5089457;28;20188;-63
2022/01/05 08:46:49;;;;;;;15.83;3.27;;;11.40;99.90;;;;;;5083649;28;20271;-64
2022/01/05 08:49:15;;;;;;;16.63;6.60;;;11.40;99.90;;;;;;5085474;28;20272;-69
2022/01/05 08:51:42;;;;;;;5.17;2.23;;;11.40;99.90;;;;;;5086501;28;20653;-64
2022/01/05 08:54:08;;;;;;;7.57;1.80;;;11.50;99.90;;;;;;5086845;28;20185;-58
2022/01/05 08:56:34;;;;;;;29.23;3.40;;;11.50;99.90;;;;;;5081944;28;20296;-65
2022/01/05 08:59:00;;;;;;;11.27;1.97;;;11.50;99.90;;;;;;5089622;28;20208;-64
2022/01/05 09:01:26;;;;;;;3.57;1.97;;;11.50;99.90;;;;;;5090448;28;20757;-64
2022/01/05 09:03:52;;;;;;;5.07;2.30;;;11.50;99.90;;;;;;5087916;28;20178;-63
2022/01/05 09:06:19;;;;;;;25.73;5.30;;;11.60;99.90;;;;;;5074841;28;20260;-61
2022/01/05 09:08:46;;;;;;;8.90;2.93;;;11.60;99.90;;;;;;5091328;28;20185;-64
2022/01/05 09:11:12;;;;;;;17.30;2.57;;;11.60;99.90;;;;;;5091824;28;20181;-66
2022/01/05 09:13:37;;;;;;;7.87;2.50;;;11.60;99.90;;;;;;5089295;28;20636;-65
2022/01/05 09:16:04;;;;;;;7.80;2.43;;;11.60;99.90;;;;;;5088817;28;20713;-61
2022/01/05 09:18:29;;;;;;;12.73;3.07;;;11.60;99.90;;;;;;5090880;28;20185;-61
2022/01/05 09:20:56;;;;;;;13.70;3.77;;;11.70;99.90;;;;;;5090550;28;20540;-63
2022/01/05 09:23:21;;;;;;;7.73;3.10;;;11.80;99.90;;;;;;5089153;28;20181;-58
2022/01/05 09:25:47;;;;;;;17.10;4.53;;;11.80;99.90;;;;;;5083704;28;20196;-65
2022/01/05 09:28:13;;;;;;;22.27;4.80;;;11.80;99.90;;;;;;5089854;28;20177;-62
2022/01/05 09:30:40;;;;;;;11.27;3.87;;;11.90;99.90;;;;;;5088972;28;20478;-63
2022/01/05 09:33:07;;;;;;;8.20;3.83;;;11.90;99.90;;;;;;5088471;28;20240;-60
2022/01/05 09:35:35;;;;;;;17.43;4.73;;;11.90;99.90;;;;;;5071500;28;20588;-64
2022/01/05 09:43:11;;;;;;;15.77;3.67;;;11.90;99.90;;;;;;5068620;28;20192;-67
2022/01/05 09:45:42;;;;;;;14.67;4.80;;;11.90;99.90;;;;;;5068397;28;20640;-63
2022/01/05 09:48:38;;;;;;;22.37;4.67;;;11.90;99.90;;;;;;5068856;28;20165;-64
2022/01/05 09:51:09;;;;;;;29.37;5.37;;;12.00;99.90;;;;;;5082470;28;20264;-64
2022/01/05 09:53:37;;;;;;;25.73;3.83;;;12.00;99.90;;;;;;5089134;28;20230;-61
2022/01/05 09:56:04;;;;;;;24.87;4.00;;;12.10;99.90;;;;;;5090662;28;20196;-62
2022/01/05 09:58:31;;;;;;;13.83;2.97;;;12.20;99.90;;;;;;5090117;28;20195;-60
2022/01/05 10:00:56;;;;;;;12.43;2.97;;;12.30;99.90;;;;;;5091301;28;20644;-60
2022/01/05 10:03:23;;;;;;;29.23;3.43;;;12.40;99.90;;;;;;5090737;28;20208;-62
2022/01/05 10:05:49;;;;;;;8.03;2.73;;;12.50;99.90;;;;;;5071413;28;20193;-60
2022/01/05 10:08:14;;;;;;;28.90;4.73;;;12.70;99.90;;;;;;5069327;28;20305;-59
2022/01/05 10:10:42;;;;;;;19.50;3.93;;;12.80;99.90;;;;;;5068556;28;20190;-62
2022/01/05 10:13:08;;;;;;;19.43;2.87;;;12.90;99.90;;;;;;5070452;28;20234;-60
2022/01/05 10:15:34;;;;;;;24.97;4.03;;;13.00;99.90;;;;;;5070129;28;20175;-64
2022/01/05 10:18:18;;;;;;;14.80;2.77;;;13.00;99.90;;;;;;5070325;28;20184;-59
2022/01/05 10:21:02;;;;;;;15.23;3.00;;;12.90;99.90;;;;;;5070484;28;20176;-60
2022/01/05 10:23:41;;;;;;;10.30;2.87;;;12.90;99.90;;;;;;5071731;28;20197;-64
2022/01/05 10:26:28;;;;;;;18.53;3.80;;;12.90;99.90;;;;;;5089107;28;20264;-63
2022/01/05 10:28:58;;;;;;;51.60;5.10;;;13.00;99.90;;;;;;5089722;28;20173;-58
2022/01/05 10:31:30;;;;;;;35.33;4.70;;;13.00;99.90;;;;;;5090411;28;20180;-59
2022/01/05 10:33:56;;;;;;;16.67;4.13;;;13.10;99.90;;;;;;5093131;28;20274;-60
2022/01/05 10:36:23;;;;;;;5.27;2.30;;;13.30;99.90;;;;;;5094463;28;20177;-59
2022/01/05 10:38:57;;;;;;;7.27;2.20;;;13.40;99.90;;;;;;5093258;28;20178;-61
2022/01/05 10:41:30;;;;;;;60.83;25.27;;;13.60;99.90;;;;;;5093763;28;20255;-60
2022/01/05 10:44:17;;;;;;;23.10;3.83;;;13.80;99.90;;;;;;5094253;28;20192;-60
2022/01/05 10:46:47;;;;;;;9.93;2.17;;;14.00;99.90;;;;;;5094255;28;20639;-58
2022/01/05 10:49:22;;;;;;;11.73;2.67;;;14.20;99.90;;;;;;5094242;28;20249;-63
2022/01/05 10:51:48;;;;;;;10.40;1.70;;;14.30;99.90;;;;;;5093655;28;20185;-61
2022/01/05 10:54:23;;;;;;;5.13;1.90;;;14.30;99.90;;;;;;5092713;28;20547;-65
2022/01/05 10:56:49;;;;;;;4.43;1.70;;;14.30;99.90;;;;;;5094029;28;20509;-61
2022/01/05 10:59:28;;;;;;;7.03;2.07;;;14.50;99.90;;;;;;5093607;28;20185;-61
2022/01/05 11:01:54;;;;;;;7.57;1.67;;;14.70;99.90;;;;;;5094185;28;20204;-62
2022/01/05 11:04:23;;;;;;;4.87;1.43;;;14.90;99.90;;;;;;5091490;28;20616;-61
2022/01/05 11:07:03;;;;;;;5.77;1.50;;;15.10;99.90;;;;;;5091997;28;20270;-60
2022/01/05 11:09:30;;;;;;;8.90;1.60;;;15.10;99.90;;;;;;5093253;28;20264;-63
2022/01/05 11:11:57;;;;;;;8.77;1.40;;;15.10;99.90;;;;;;5092238;28;20314;-63
2022/01/05 11:14:31;;;;;;;7.47;1.90;;;15.20;99.70;;;;;;5093412;28;20169;-64
2022/01/05 11:16:59;;;;;;;10.37;2.20;;;15.10;99.70;;;;;;5093703;28;20627;-60
2022/01/05 11:19:30;;;;;;;7.13;1.53;;;15.30;99.70;;;;;;5092622;28;20177;-59
2022/01/05 11:22:08;;;;;;;9.30;1.83;;;15.30;99.40;;;;;;5092847;28;20201;-60
2022/01/05 11:24:54;;;;;;;5.40;1.73;;;15.40;99.40;;;;;;5090722;28;20195;-61
2022/01/05 11:27:28;;;;;;;17.77;3.90;;;15.40;99.40;;;;;;5091828;28;20196;-60
2022/01/05 11:29:57;;;;;;;7.60;2.00;;;15.50;99.20;;;;;;5080270;28;20177;-62
2022/01/05 11:32:27;;;;;;;5.73;2.30;;;15.20;99.10;;;;;;5081238;28;20192;-63
2022/01/05 11:34:54;;;;;;;15.13;2.47;;;15.20;99.50;;;;;;5093515;28;20204;-62
2022/01/05 11:37:20;;;;;;;8.37;2.00;;;15.30;99.50;;;;;;5093166;28;20185;-68
2022/01/05 11:39:52;;;;;;;5.00;1.60;;;15.10;99.40;;;;;;5093080;28;20173;-63
2022/01/05 11:42:25;;;;;;;16.27;3.30;;;14.90;99.40;;;;;;5093369;28;20676;-61
2022/01/05 11:44:54;;;;;;;5.90;1.80;;;14.80;99.90;;;;;;5092193;28;20161;-61
2022/01/05 11:47:25;;;;;;;2.43;1.60;;;14.90;99.80;;;;;;5074334;28;20181;-64
2022/01/05 11:49:53;;;;;;;6.77;2.10;;;14.90;99.70;;;;;;5089422;28;20196;-66
2022/01/05 11:52:39;;;;;;;10.80;2.00;;;14.90;99.80;;;;;;5072516;28;20220;-73
2022/01/05 11:55:06;;;;;;;8.47;1.50;;;15.00;99.60;;;;;;5081202;28;20222;-62
2022/01/05 11:57:31;;;;;;;9.77;1.80;;;14.90;99.40;;;;;;5092154;28;20628;-63
2022/01/05 12:00:18;;;;;;;11.60;3.23;;;14.90;99.30;;;;;;5092627;28;20186;-65
2022/01/05 12:02:44;;;;;;;14.93;2.37;;;14.80;99.60;;;;;;5091629;28;20260;-59
2022/01/05 12:05:10;;;;;;;2.53;1.77;;;14.80;99.80;;;;;;5091880;28;20180;-60
2022/01/05 12:07:43;;;;;;;9.50;2.03;;;14.70;99.70;;;;;;5092929;28;20581;-61
2022/01/05 12:10:21;;;;;;;7.80;2.43;;;14.70;99.90;;;;;;5092339;28;20165;-61
2022/01/05 12:12:56;;;;;;;11.87;2.53;;;14.90;99.90;;;;;;5092876;28;20680;-61
2022/01/05 12:15:56;;;;;;;6.70;2.37;;;15.10;99.30;;;;;;5092192;28;20184;-61
2022/01/05 12:18:35;;;;;;;7.83;2.83;;;14.90;99.10;;;;;;5092666;28;20307;-62
2022/01/05 12:21:01;;;;;;;10.90;2.27;;;14.70;99.50;;;;;;5092570;28;20173;-84
2022/01/05 12:23:30;;;;;;;10.20;2.50;;;14.50;99.60;;;;;;5092869;28;20728;-62
2022/01/05 12:26:16;;;;;;;3.40;1.60;;;14.40;99.90;;;;;;5092394;28;20196;-61
2022/01/05 12:29:00;;;;;;;3.00;1.60;;;14.40;99.90;;;;;;5090847;28;20517;-61
2022/01/05 12:32:01;;;;;;;9.00;2.50;;;14.40;99.90;;;;;;5092573;28;20197;-59
2022/01/05 12:34:49;;;;;;;7.73;2.17;;;14.60;99.90;;;;;;5012966;28;20241;-64
2022/01/05 12:37:38;;;;;;;12.20;3.13;;;15.00;99.30;;;;;;5088943;28;20184;-60
2022/01/05 12:40:46;;;;;;;6.27;2.27;;;14.90;99.10;;;;;;5091091;28;20184;-57
2022/01/05 12:43:12;;;;;;;7.23;2.10;;;14.30;99.80;;;;;;5084342;28;20676;-60
2022/01/05 12:45:52;;;;;;;9.67;2.20;;;14.00;99.90;;;;;;5091911;28;20246;-59
2022/01/05 12:48:33;;;;;;;12.40;2.87;;;13.70;99.90;;;;;;5091926;28;20183;-63
2022/01/05 12:51:17;;;;;;;14.43;2.43;;;13.50;99.90;;;;;;5092162;28;20182;-60
2022/01/05 12:54:03;;;;;;;11.73;2.80;;;13.40;99.90;;;;;;5091608;28;20180;-65
2022/01/05 12:56:39;;;;;;;15.13;2.67;;;13.30;99.90;;;;;;5091331;28;20219;-60